KTLH/TLH METAR and TAF weather

Enter ICAO airport designator
Station Type Date Time Source
KTLH METAR 2020/09/20 07:53 UTC NOAA

KTLH 200753Z AUTO 07009KT 10SM OVC090 21/15 A3005 RMK AO2 SLP176 T02060150 $


Station Type Date Time Source
KTLH Decoded METAR 2020/09/20 07:53 UTC NOAA

TALLAHASSEE REGIONAL AIRPORT , FL, United States (KTLH) 30-24N 84-21W 16M
Sep 20, 2020 - 03:53 AM EDT / 2020.09.20 0753 UTC
Wind: from the ENE (070 degrees) at 10 MPH (9 KT):0
Visibility: 10 mile(s):0
Sky conditions: overcast
Temperature: 69.1 F (20.6 C)
Dew Point: 59.0 F (15.0 C)
Relative Humidity: 70%
Pressure (altimeter): 30.05 in. Hg (1017 hPa)
ob: KTLH 200753Z AUTO 07009KT 10SM OVC090 21/15 A3005 RMK AO2 SLP176 T02060150
cycle: 8

Station Type Date Time Source
KTLH TAF 2020/09/20 06:22 UTC NOAA

TAF KTLH 200520Z 2006/2106 06010KT P6SM BKN035 OVC060
FM201500 06012G18KT P6SM OVC050
FM210000 06008KT P6SM OVC080

Example: see airport list